Time;durP1;ratioP1;P1;durP2;ratioP2;P2;SDS_P1;SDS_P2;PMS_P1;PMS_P2;Temp;Humidity;BMP_temperature;BMP_pressure;BME280_temperature;BME280_humidity;BME280_pressure;Samples;Min_cycle;Max_cycle;Signal;HPM_P1;HPM_P2
2021/12/02 00:01:35;;;;;;;5.30;4.90;;;25.10;99.90;;;;;;5036148;28;20030;-77
2021/12/02 00:04:02;;;;;;;5.75;5.35;;;25.50;99.90;;;;;;5034811;28;20037;-78
2021/12/02 00:06:30;;;;;;;6.60;4.82;;;25.80;99.90;;;;;;5035426;28;20014;-80
2021/12/02 00:08:57;;;;;;;5.00;4.60;;;26.10;99.90;;;;;;5036326;28;20476;-78
2021/12/02 00:11:25;;;;;;;4.90;4.53;;;26.00;99.90;;;;;;5034362;28;20092;-81
2021/12/02 00:21:45;;;;;;;5.30;4.90;;;25.50;99.90;;;;;;5043780;28;20036;-83
2021/12/02 00:24:18;;;;;;;4.82;4.50;;;26.10;99.90;;;;;;5041456;28;20490;-80
2021/12/02 00:26:48;;;;;;;4.30;4.00;;;26.80;99.90;;;;;;5040025;28;20490;-79
2021/12/02 00:29:22;;;;;;;5.13;4.80;;;26.20;99.90;;;;;;5040393;28;20104;-82
2021/12/02 00:31:53;;;;;;;5.68;5.38;;;25.70;99.90;;;;;;5038628;28;20033;-77
2021/12/02 00:34:22;;;;;;;5.00;4.70;;;26.20;99.90;;;;;;5021321;28;20026;-78
2021/12/02 00:36:50;;;;;;;5.30;4.85;;;26.30;99.90;;;;;;5039226;28;20021;-78
2021/12/02 00:39:19;;;;;;;5.05;4.65;;;26.10;99.90;;;;;;5038778;28;20041;-78
2021/12/02 00:41:48;;;;;;;5.37;5.07;;;25.80;99.90;;;;;;5040057;28;20029;-78
2021/12/02 00:44:18;;;;;;;5.30;4.85;;;25.70;99.90;;;;;;5038626;28;20778;-79
2021/12/02 00:46:46;;;;;;;4.70;4.40;;;26.30;99.90;;;;;;5038503;28;20393;-77
2021/12/02 00:49:17;;;;;;;3.88;3.58;;;27.10;99.90;;;;;;5038527;28;20040;-78
2021/12/02 00:51:54;;;;;;;4.40;4.10;;;26.70;99.90;;;;;;5039221;28;20017;-79
2021/12/02 00:54:24;;;;;;;4.60;4.30;;;26.90;99.90;;;;;;5039007;28;20081;-79
2021/12/02 00:56:53;;;;;;;4.65;4.35;;;27.30;99.90;;;;;;5038527;28;20060;-79
2021/12/02 00:59:22;;;;;;;4.70;4.35;;;27.60;99.90;;;;;;5039680;28;20025;-81
2021/12/02 01:01:51;;;;;;;4.15;3.95;;;27.90;99.90;;;;;;5041552;28;20017;-82
2021/12/02 01:04:23;;;;;;;4.20;3.90;;;27.60;99.90;;;;;;5039758;28;20034;-80
2021/12/02 01:06:51;;;;;;;4.93;4.43;;;27.30;99.90;;;;;;5038675;28;20474;-79
2021/12/02 01:09:19;;;;;;;4.82;3.70;;;27.70;99.90;;;;;;5039483;28;20027;-80
2021/12/02 01:11:47;;;;;;;4.10;3.80;;;27.60;99.90;;;;;;5039651;28;20025;-80
2021/12/02 01:14:14;;;;;;;4.22;3.92;;;27.40;99.90;;;;;;5037740;28;20025;-77
2021/12/02 01:16:43;;;;;;;3.45;3.22;;;27.50;99.90;;;;;;5036811;28;20022;-78
2021/12/02 01:19:11;;;;;;;3.58;3.28;;;27.80;99.90;;;;;;5037569;28;20013;-78
2021/12/02 01:21:42;;;;;;;3.58;3.38;;;28.00;99.90;;;;;;5038054;28;20040;-77
2021/12/02 01:24:13;;;;;;;3.78;3.47;;;27.50;99.90;;;;;;5034854;28;20120;-77
2021/12/02 01:26:44;;;;;;;3.90;3.60;;;27.90;99.90;;;;;;5037808;28;20029;-77
2021/12/02 01:29:13;;;;;;;3.45;3.25;;;28.10;99.90;;;;;;5037428;28;20017;-77
2021/12/02 01:31:42;;;;;;;3.13;2.90;;;27.90;99.90;;;;;;5037255;28;20391;-76
2021/12/02 01:34:09;;;;;;;3.72;3.00;;;28.10;99.90;;;;;;5037285;28;20018;-76
2021/12/02 01:36:40;;;;;;;2.90;2.80;;;28.10;99.90;;;;;;5035669;28;20052;-77
2021/12/02 01:39:09;;;;;;;3.05;2.80;;;27.90;99.90;;;;;;5036846;28;20043;-76
2021/12/02 01:41:44;;;;;;;3.33;3.03;;;27.90;99.90;;;;;;5036979;28;20072;-76
2021/12/02 01:44:14;;;;;;;4.35;3.30;;;27.90;99.90;;;;;;5035197;28;20057;-77
2021/12/02 01:46:42;;;;;;;;;;;27.80;99.90;;;;;;5037661;28;20071;-76
2021/12/02 01:49:13;;;;;;;4.15;3.85;;;27.50;99.90;;;;;;5035737;28;19905;-77
2021/12/02 01:51:50;;;;;;;3.80;3.60;;;27.80;99.90;;;;;;5035524;28;20021;-75
2021/12/02 01:54:20;;;;;;;3.58;3.30;;;27.80;99.90;;;;;;5037017;28;20454;-78
2021/12/02 01:56:49;;;;;;;5.13;3.83;;;27.70;99.90;;;;;;5037291;28;20025;-77
2021/12/02 01:59:28;;;;;;;3.90;3.60;;;28.20;99.90;;;;;;5035323;28;20083;-77
2021/12/02 02:01:59;;;;;;;4.18;3.78;;;28.40;99.90;;;;;;5035510;28;20022;-77
2021/12/02 02:04:27;;;;;;;4.18;3.90;;;28.40;99.90;;;;;;5036915;28;20021;-77
2021/12/02 02:06:59;;;;;;;4.13;3.80;;;28.00;99.90;;;;;;5036843;28;20025;-78
2021/12/02 02:09:32;;;;;;;3.80;3.47;;;28.00;99.90;;;;;;5035360;28;20026;-77
2021/12/02 02:12:03;;;;;;;3.80;3.55;;;28.00;99.90;;;;;;5036554;28;20013;-77
2021/12/02 02:14:35;;;;;;;3.47;3.20;;;28.30;99.90;;;;;;5036382;28;20060;-78
2021/12/02 02:17:12;;;;;;;3.38;3.20;;;28.00;99.90;;;;;;5035158;28;20120;-79
2021/12/02 02:19:39;;;;;;;3.22;2.92;;;28.10;99.90;;;;;;5034839;28;20025;-77
2021/12/02 02:22:07;;;;;;;3.20;3.00;;;28.30;99.90;;;;;;5036137;28;20076;-76
2021/12/02 02:24:35;;;;;;;3.55;3.28;;;28.20;99.90;;;;;;5035804;28;20104;-75
2021/12/02 02:27:04;;;;;;;3.88;3.50;;;28.10;99.90;;;;;;5037152;28;20029;-79
2021/12/02 02:29:31;;;;;;;3.63;3.42;;;28.40;99.90;;;;;;5035790;28;20032;-81
2021/12/02 02:31:59;;;;;;;4.07;3.78;;;28.40;99.90;;;;;;5041171;28;20100;-82
2021/12/02 02:34:26;;;;;;;4.30;3.90;;;28.20;99.90;;;;;;5039604;28;20108;-79
2021/12/02 02:36:55;;;;;;;4.00;3.75;;;28.10;99.90;;;;;;5038440;28;20051;-79
2021/12/02 02:39:25;;;;;;;3.90;3.50;;;28.20;99.90;;;;;;5041634;28;20112;-80
2021/12/02 02:42:00;;;;;;;4.20;3.80;;;28.30;99.90;;;;;;5040379;28;20410;-80
2021/12/02 02:44:29;;;;;;;3.83;3.53;;;28.10;99.90;;;;;;5037125;28;20077;-78
2021/12/02 02:46:57;;;;;;;3.70;3.50;;;28.20;99.90;;;;;;5037270;28;20364;-76
2021/12/02 02:49:24;;;;;;;3.85;3.50;;;28.30;99.90;;;;;;5035416;28;20036;-79
2021/12/02 02:51:53;;;;;;;3.85;3.45;;;28.30;99.90;;;;;;5036383;28;20073;-78
2021/12/02 02:54:22;;;;;;;3.70;3.40;;;28.50;99.90;;;;;;5018226;28;20029;-80
2021/12/02 02:57:02;;;;;;;3.40;3.10;;;28.80;99.90;;;;;;5035784;28;20029;-80
2021/12/02 02:59:59;;;;;;;3.45;3.15;;;28.40;99.90;;;;;;5036416;28;20017;-80
2021/12/02 03:02:45;;;;;;;3.72;3.42;;;28.50;99.90;;;;;;5035333;28;20032;-74
2021/12/02 03:05:26;;;;;;;4.05;3.63;;;28.40;99.90;;;;;;5034168;28;20029;-76
2021/12/02 03:07:57;;;;;;;3.70;3.40;;;28.20;99.90;;;;;;5033890;28;20492;-76
2021/12/02 03:10:50;;;;;;;3.60;3.30;;;28.70;99.90;;;;;;5035233;28;20497;-77
2021/12/02 03:13:21;;;;;;;3.95;3.60;;;28.90;99.90;;;;;;5034915;28;20041;-76
2021/12/02 03:18:38;;;;;;;3.30;3.10;;;28.40;99.90;;;;;;5034329;28;20045;-79
2021/12/02 03:21:21;;;;;;;5.53;3.33;;;28.20;99.90;;;;;;5017754;28;20038;-78
2021/12/02 03:23:53;;;;;;;3.90;3.35;;;28.70;99.90;;;;;;5033934;28;20029;-77
2021/12/02 03:26:21;;;;;;;3.42;3.13;;;28.70;99.90;;;;;;5035295;28;20108;-78
2021/12/02 03:28:50;;;;;;;4.25;3.70;;;28.30;99.90;;;;;;5035596;28;20022;-79
2021/12/02 03:31:18;;;;;;;3.72;3.42;;;28.10;99.90;;;;;;5035244;28;20025;-77
2021/12/02 03:33:46;;;;;;;3.70;3.20;;;28.20;99.90;;;;;;5033272;28;20394;-77
2021/12/02 03:36:15;;;;;;;3.35;3.20;;;28.10;99.90;;;;;;5033050;28;20028;-74
2021/12/02 03:38:44;;;;;;;3.45;3.15;;;28.30;99.90;;;;;;5033028;28;20029;-76
2021/12/02 03:41:11;;;;;;;3.20;3.00;;;28.30;99.90;;;;;;5032818;28;20478;-76
2021/12/02 03:43:41;;;;;;;3.35;3.00;;;28.20;99.90;;;;;;5033137;28;20053;-75
2021/12/02 03:46:10;;;;;;;3.55;2.80;;;28.50;99.90;;;;;;5033125;28;20035;-75
2021/12/02 03:48:38;;;;;;;7.55;3.45;;;28.60;99.90;;;;;;5033641;28;20106;-75
2021/12/02 03:51:06;;;;;;;4.63;3.10;;;28.70;99.90;;;;;;5032418;28;20083;-73
2021/12/02 03:53:34;;;;;;;4.20;2.85;;;28.70;99.90;;;;;;5033944;28;20091;-75
2021/12/02 03:56:04;;;;;;;3.83;3.38;;;28.50;99.90;;;;;;5033813;28;20026;-75
2021/12/02 03:58:31;;;;;;;3.10;2.90;;;28.20;99.90;;;;;;5033922;28;20525;-75
2021/12/02 04:00:58;;;;;;;2.97;2.80;;;28.40;99.90;;;;;;5034254;28;20049;-75
2021/12/02 04:03:26;;;;;;;4.10;3.65;;;28.70;99.90;;;;;;5033977;28;20056;-75
2021/12/02 04:05:53;;;;;;;3.50;3.20;;;28.60;99.90;;;;;;5032920;28;20063;-75
2021/12/02 04:08:28;;;;;;;6.18;3.50;;;28.80;99.90;;;;;;5033948;28;20060;-75
2021/12/02 04:11:10;;;;;;;4.18;3.70;;;28.90;99.90;;;;;;5034081;28;20104;-75
2021/12/02 04:13:43;;;;;;;3.65;3.45;;;28.80;99.90;;;;;;5032749;28;20079;-75
2021/12/02 04:16:14;;;;;;;3.28;3.17;;;28.80;99.90;;;;;;5032648;28;20026;-74
2021/12/02 04:18:41;;;;;;;3.58;3.28;;;28.40;99.90;;;;;;5033711;28;20029;-74
2021/12/02 04:21:09;;;;;;;2.90;2.70;;;28.20;99.90;;;;;;5032367;28;20548;-74
2021/12/02 04:23:37;;;;;;;3.08;2.80;;;28.10;99.90;;;;;;5031850;28;20512;-74
2021/12/02 04:26:04;;;;;;;3.33;2.90;;;28.40;99.90;;;;;;5031975;28;20022;-75
2021/12/02 04:28:33;;;;;;;3.03;2.72;;;28.60;99.90;;;;;;5032288;28;20505;-75
2021/12/02 04:31:00;;;;;;;3.42;3.10;;;28.40;99.90;;;;;;5033448;28;20475;-76
2021/12/02 04:33:29;;;;;;;3.30;2.90;;;28.60;99.90;;;;;;5032223;28;20044;-75
2021/12/02 04:35:59;;;;;;;3.25;2.97;;;28.60;99.90;;;;;;5033609;28;20029;-80
2021/12/02 04:38:28;;;;;;;3.10;2.90;;;28.40;99.90;;;;;;5034676;28;20033;-80
2021/12/02 04:40:56;;;;;;;3.17;2.92;;;28.60;99.90;;;;;;5033214;28;20029;-79
2021/12/02 04:43:24;;;;;;;3.45;3.10;;;28.50;99.90;;;;;;5037530;28;20050;-78
2021/12/02 04:45:52;;;;;;;3.10;2.90;;;28.50;99.90;;;;;;5036370;28;20018;-79
2021/12/02 04:48:20;;;;;;;3.60;3.30;;;28.50;99.90;;;;;;5036195;28;20081;-79
2021/12/02 04:50:48;;;;;;;3.95;3.60;;;28.50;99.90;;;;;;5038327;28;20022;-82
2021/12/02 04:53:16;;;;;;;3.40;3.20;;;28.50;99.90;;;;;;5041279;28;20022;-82
2021/12/02 04:55:43;;;;;;;3.67;3.38;;;28.20;99.90;;;;;;5036883;28;20033;-83
2021/12/02 04:58:11;;;;;;;3.05;2.95;;;28.60;99.90;;;;;;5039503;28;20099;-81
2021/12/02 05:00:38;;;;;;;3.10;2.97;;;28.30;99.90;;;;;;5045983;28;20091;-81
2021/12/02 05:03:06;;;;;;;3.30;3.00;;;28.40;99.90;;;;;;5040370;28;20493;-77
2021/12/02 05:05:34;;;;;;;3.10;2.90;;;28.40;99.90;;;;;;5036213;28;20029;-77
2021/12/02 05:08:03;;;;;;;4.05;3.08;;;28.30;99.90;;;;;;5039025;28;20028;-79
2021/12/02 05:10:32;;;;;;;2.80;2.70;;;28.50;99.90;;;;;;5038816;28;20032;-78
2021/12/02 05:13:00;;;;;;;2.78;2.55;;;28.30;99.90;;;;;;5037927;28;20040;-79
2021/12/02 05:15:27;;;;;;;2.83;2.70;;;28.30;99.90;;;;;;5039713;28;20021;-79
2021/12/02 05:17:54;;;;;;;3.15;2.95;;;28.50;99.90;;;;;;5038918;28;20146;-80
2021/12/02 05:20:22;;;;;;;3.20;3.00;;;28.50;99.90;;;;;;5042682;28;20028;-80
2021/12/02 05:22:50;;;;;;;3.10;2.83;;;28.70;99.90;;;;;;5021078;28;20486;-78
2021/12/02 05:25:18;;;;;;;3.20;2.88;;;28.50;99.90;;;;;;5036063;28;20025;-78
2021/12/02 05:27:46;;;;;;;3.35;2.58;;;28.30;99.90;;;;;;5037587;28;20021;-79
2021/12/02 05:30:13;;;;;;;2.50;2.40;;;28.60;99.90;;;;;;5036134;28;20445;-79
2021/12/02 05:32:40;;;;;;;3.47;2.78;;;28.50;99.90;;;;;;5036210;28;20021;-77
2021/12/02 05:35:08;;;;;;;2.90;2.70;;;28.50;99.90;;;;;;5035900;28;20025;-80
2021/12/02 05:37:36;;;;;;;2.80;2.60;;;28.70;99.90;;;;;;5037005;28;20371;-77
2021/12/02 05:40:05;;;;;;;3.60;3.30;;;29.10;99.90;;;;;;5036803;28;20417;-77
2021/12/02 05:42:32;;;;;;;3.20;3.08;;;29.40;99.90;;;;;;5036445;28;20053;-77
2021/12/02 05:44:59;;;;;;;3.20;3.05;;;29.30;99.90;;;;;;5036283;28;20486;-78
2021/12/02 05:47:27;;;;;;;2.90;2.80;;;29.20;99.90;;;;;;5036901;28;20025;-77
2021/12/02 05:49:54;;;;;;;3.28;3.00;;;29.60;99.90;;;;;;5036179;28;20025;-78
2021/12/02 05:52:21;;;;;;;3.00;2.80;;;29.80;99.90;;;;;;5034857;28;20538;-78
2021/12/02 05:54:50;;;;;;;2.70;2.60;;;29.80;99.90;;;;;;5036530;28;20036;-77
2021/12/02 05:57:17;;;;;;;2.80;2.35;;;30.00;99.90;;;;;;5036556;28;20032;-78
2021/12/02 05:59:45;;;;;;;2.65;2.45;;;29.90;99.90;;;;;;5036178;28;20052;-78
2021/12/02 06:02:12;;;;;;;2.53;2.30;;;30.10;99.90;;;;;;5034872;28;20030;-77
2021/12/02 06:04:42;;;;;;;2.78;2.47;;;29.80;99.90;;;;;;5035996;28;20470;-78
2021/12/02 06:07:09;;;;;;;3.17;2.60;;;30.00;99.90;;;;;;5035080;28;20482;-78
2021/12/02 06:09:36;;;;;;;2.85;2.40;;;30.10;99.90;;;;;;5034842;28;20116;-76
2021/12/02 06:12:04;;;;;;;2.78;2.58;;;29.80;99.90;;;;;;5033901;28;20063;-77
2021/12/02 06:14:31;;;;;;;2.83;2.60;;;29.90;99.90;;;;;;5034309;28;20426;-76
2021/12/02 06:16:59;;;;;;;2.53;2.30;;;29.90;99.90;;;;;;5036280;28;20092;-77
2021/12/02 06:19:26;;;;;;;2.70;2.50;;;30.10;99.90;;;;;;5034601;28;20049;-77
2021/12/02 06:21:55;;;;;;;2.70;2.50;;;30.40;99.90;;;;;;5036203;28;20053;-77
2021/12/02 06:24:43;;;;;;;2.70;2.50;;;30.00;99.90;;;;;;5035355;28;20022;-76
2021/12/02 06:27:11;;;;;;;2.88;2.67;;;29.80;99.90;;;;;;5035749;28;20044;-77
2021/12/02 06:29:39;;;;;;;2.70;2.50;;;29.80;99.90;;;;;;5035105;28;20093;-78
2021/12/02 06:32:07;;;;;;;2.85;2.65;;;29.60;99.90;;;;;;5034680;28;20022;-77
2021/12/02 06:34:35;;;;;;;2.60;2.50;;;29.60;99.90;;;;;;5034705;28;20056;-77
2021/12/02 06:37:03;;;;;;;2.90;2.70;;;29.60;99.90;;;;;;5034916;28;20379;-77
2021/12/02 06:39:31;;;;;;;2.90;2.70;;;29.50;99.90;;;;;;5035642;28;20083;-76
2021/12/02 06:41:58;;;;;;;2.70;2.45;;;29.70;99.90;;;;;;5036161;28;20026;-78
2021/12/02 06:44:25;;;;;;;2.90;2.70;;;29.60;99.90;;;;;;5034359;28;20045;-80
2021/12/02 06:46:53;;;;;;;2.80;2.45;;;29.10;99.90;;;;;;5035778;28;20033;-78
2021/12/02 06:49:20;;;;;;;2.90;2.40;;;29.30;99.90;;;;;;5034217;28;20140;-77
2021/12/02 06:51:47;;;;;;;2.60;2.40;;;29.30;99.90;;;;;;5035412;28;20022;-78
2021/12/02 06:54:15;;;;;;;2.78;2.58;;;29.30;99.90;;;;;;5034106;28;20021;-78
2021/12/02 06:56:42;;;;;;;2.80;2.60;;;29.50;99.90;;;;;;5034071;28;20029;-79
2021/12/02 06:59:09;;;;;;;3.15;2.90;;;29.80;99.90;;;;;;5035372;28;20044;-78
2021/12/02 07:01:37;;;;;;;3.53;3.20;;;29.80;99.90;;;;;;5035485;28;20018;-79
2021/12/02 07:04:04;;;;;;;3.20;2.90;;;29.80;99.90;;;;;;5033959;28;20032;-77
2021/12/02 07:06:32;;;;;;;2.92;2.70;;;29.00;99.90;;;;;;5033992;28;20025;-78
2021/12/02 07:09:00;;;;;;;3.70;2.60;;;28.70;99.90;;;;;;5033609;28;20037;-78
2021/12/02 07:11:27;;;;;;;2.53;2.42;;;28.30;99.90;;;;;;5017139;28;20021;-78
2021/12/02 07:14:00;;;;;;;2.35;2.15;;;28.00;99.90;;;;;;5034942;28;20017;-78
2021/12/02 07:16:32;;;;;;;2.00;1.90;;;27.50;99.90;;;;;;5035388;28;20033;-78
2021/12/02 07:19:03;;;;;;;2.75;2.38;;;27.30;99.90;;;;;;5033518;28;20029;-78
2021/12/02 07:21:31;;;;;;;2.40;2.20;;;26.60;99.90;;;;;;5034203;28;20021;-77
2021/12/02 07:23:58;;;;;;;2.60;2.40;;;26.40;99.90;;;;;;5033891;28;20029;-76
2021/12/02 07:26:26;;;;;;;2.00;1.90;;;26.20;99.90;;;;;;5034557;28;20037;-75
2021/12/02 07:28:53;;;;;;;2.28;2.17;;;25.90;99.90;;;;;;5032803;28;20056;-74
2021/12/02 07:31:22;;;;;;;2.72;2.53;;;25.90;99.90;;;;;;5032642;28;20108;-75
2021/12/02 07:33:53;;;;;;;2.92;2.60;;;25.40;99.90;;;;;;5034415;28;20045;-75
2021/12/02 07:36:20;;;;;;;2.80;2.70;;;25.10;99.90;;;;;;5032824;28;20075;-74
2021/12/02 07:38:49;;;;;;;3.38;3.20;;;24.70;99.90;;;;;;5032542;28;20053;-75
2021/12/02 07:41:16;;;;;;;3.30;3.10;;;24.30;99.90;;;;;;5033991;28;20029;-76
2021/12/02 07:43:44;;;;;;;3.85;3.58;;;24.30;99.90;;;;;;5032799;28;20049;-76
2021/12/02 07:46:11;;;;;;;3.28;3.17;;;23.90;99.90;;;;;;5032858;28;20525;-77
2021/12/02 07:48:39;;;;;;;3.95;3.65;;;23.70;99.90;;;;;;5033890;28;20029;-77
2021/12/02 07:51:12;;;;;;;4.78;4.40;;;23.50;99.90;;;;;;5032759;28;20018;-74
2021/12/02 07:53:48;;;;;;;4.47;4.25;;;23.30;99.90;;;;;;5032397;28;20112;-74
2021/12/02 07:56:17;;;;;;;4.70;4.40;;;23.30;99.90;;;;;;5034209;28;20079;-74
2021/12/02 07:58:46;;;;;;;4.80;4.50;;;23.30;99.90;;;;;;5033999;28;20030;-76
2021/12/02 08:01:15;;;;;;;4.78;4.47;;;23.10;99.90;;;;;;5033977;28;20033;-76
2021/12/02 08:03:47;;;;;;;5.10;4.90;;;23.00;99.90;;;;;;5032408;28;20025;-75
2021/12/02 08:06:16;;;;;;;5.45;5.05;;;22.90;99.90;;;;;;5033910;28;20021;-76
2021/12/02 08:08:45;;;;;;;5.93;5.60;;;22.90;99.90;;;;;;5033971;28;20028;-76
2021/12/02 08:11:13;;;;;;;5.85;5.35;;;22.80;99.90;;;;;;5033811;28;20026;-76
2021/12/02 08:13:40;;;;;;;6.05;5.80;;;22.80;99.90;;;;;;5033840;28;20445;-76
2021/12/02 08:16:08;;;;;;;6.28;5.80;;;22.70;99.90;;;;;;5033695;28;20025;-76
2021/12/02 08:18:37;;;;;;;6.43;6.05;;;22.60;99.90;;;;;;5034166;28;20382;-77
2021/12/02 08:21:06;;;;;;;7.72;7.13;;;22.60;99.90;;;;;;5032542;28;20025;-77
2021/12/02 08:23:33;;;;;;;7.97;7.40;;;22.50;99.90;;;;;;5033753;28;20030;-77
2021/12/02 08:26:00;;;;;;;8.90;8.45;;;22.40;99.90;;;;;;5032610;28;20025;-77
2021/12/02 08:28:28;;;;;;;8.77;8.20;;;22.40;99.90;;;;;;5033697;28;20026;-76
2021/12/02 08:30:57;;;;;;;8.60;8.00;;;22.40;99.90;;;;;;5033913;28;20029;-79
2021/12/02 08:33:25;;;;;;;9.57;9.07;;;22.20;99.90;;;;;;5035321;28;20026;-78
2021/12/02 08:35:54;;;;;;;9.82;9.32;;;22.30;99.90;;;;;;5037397;28;20033;-78
2021/12/02 08:38:30;;;;;;;10.02;9.50;;;22.10;99.90;;;;;;5020394;28;20034;-78
2021/12/02 08:40:58;;;;;;;10.35;9.75;;;22.10;99.90;;;;;;5038428;28;20057;-78
2021/12/02 08:43:26;;;;;;;10.00;9.60;;;22.00;99.90;;;;;;5036107;28;20414;-76
2021/12/02 08:45:54;;;;;;;10.40;9.80;;;22.00;99.90;;;;;;5035915;28;20029;-75
2021/12/02 08:48:22;;;;;;;9.77;9.27;;;21.90;99.90;;;;;;5035698;28;20112;-76
2021/12/02 08:50:49;;;;;;;10.30;9.80;;;21.90;99.90;;;;;;5037324;28;20084;-76
2021/12/02 08:53:17;;;;;;;10.55;9.98;;;21.90;99.90;;;;;;5035965;28;20021;-77
2021/12/02 08:55:45;;;;;;;10.52;9.95;;;21.80;99.90;;;;;;5037828;28;20076;-76
2021/12/02 08:58:12;;;;;;;10.10;9.60;;;21.70;99.90;;;;;;5037730;28;20029;-76
2021/12/02 09:00:40;;;;;;;11.50;10.70;;;21.70;99.90;;;;;;5035943;28;20079;-77
2021/12/02 09:03:12;;;;;;;11.60;10.80;;;21.60;99.90;;;;;;5037419;28;20056;-78
2021/12/02 09:05:40;;;;;;;10.80;10.30;;;21.60;99.90;;;;;;5036130;28;20064;-78
2021/12/02 09:08:08;;;;;;;11.57;10.88;;;21.70;99.90;;;;;;5035654;28;20021;-76
2021/12/02 09:10:36;;;;;;;11.90;11.30;;;21.60;99.90;;;;;;5037160;28;20029;-77
2021/12/02 09:13:08;;;;;;;11.70;10.90;;;21.50;99.90;;;;;;5035645;28;20025;-74
2021/12/02 09:15:37;;;;;;;11.63;10.98;;;21.40;99.90;;;;;;5036570;28;20049;-75
2021/12/02 09:18:04;;;;;;;11.38;10.68;;;21.40;99.90;;;;;;5035728;28;20116;-77
2021/12/02 09:20:32;;;;;;;12.00;11.30;;;21.40;99.90;;;;;;5036868;28;20115;-76
2021/12/02 09:23:00;;;;;;;12.10;11.48;;;21.40;99.90;;;;;;5036162;28;20043;-77
2021/12/02 09:25:28;;;;;;;12.75;12.07;;;21.30;99.90;;;;;;5035807;28;20025;-77
2021/12/02 09:27:55;;;;;;;12.88;12.27;;;21.30;99.90;;;;;;5035750;28;20018;-76
2021/12/02 09:30:24;;;;;;;13.00;12.35;;;21.30;99.90;;;;;;5036895;28;20030;-75
2021/12/02 09:32:52;;;;;;;13.57;12.77;;;21.30;99.90;;;;;;5036765;28;20029;-76
2021/12/02 09:35:20;;;;;;;14.10;13.23;;;21.20;99.90;;;;;;5036817;28;20433;-76
2021/12/02 09:37:47;;;;;;;13.63;12.95;;;21.20;99.90;;;;;;5035159;28;20052;-75
2021/12/02 09:40:16;;;;;;;14.15;13.35;;;21.20;99.90;;;;;;5035425;28;20029;-76
2021/12/02 09:42:45;;;;;;;14.70;13.90;;;21.20;99.90;;;;;;5035056;28;20057;-76
2021/12/02 09:45:14;;;;;;;14.80;13.90;;;21.20;99.90;;;;;;5035275;28;20502;-74
2021/12/02 09:47:45;;;;;;;15.30;14.50;;;21.20;99.90;;;;;;5035066;28;20021;-74
2021/12/02 09:50:26;;;;;;;15.02;14.32;;;21.20;99.90;;;;;;5035186;28;20108;-75
2021/12/02 09:52:56;;;;;;;15.45;14.75;;;21.10;99.90;;;;;;5035127;28;20116;-74
2021/12/02 09:55:31;;;;;;;16.20;15.20;;;21.10;99.90;;;;;;5036229;28;20029;-75
2021/12/02 09:58:00;;;;;;;15.75;14.95;;;21.10;99.90;;;;;;5036403;28;20113;-75
2021/12/02 10:00:43;;;;;;;16.15;15.45;;;21.10;99.90;;;;;;5036382;28;20067;-74
2021/12/02 10:03:29;;;;;;;16.45;15.50;;;21.00;99.90;;;;;;5036025;28;20029;-75
2021/12/02 10:06:20;;;;;;;16.83;15.82;;;21.00;99.90;;;;;;5036264;28;20048;-75
2021/12/02 10:09:05;;;;;;;17.40;16.10;;;21.10;99.90;;;;;;5034811;28;20164;-75
2021/12/02 10:11:59;;;;;;;16.95;15.90;;;21.00;99.90;;;;;;5035013;28;20032;-75
2021/12/02 10:14:33;;;;;;;18.23;17.10;;;21.00;99.90;;;;;;5034427;28;20021;-75
2021/12/02 10:17:28;;;;;;;18.00;16.98;;;21.00;99.90;;;;;;5036446;28;20021;-74
2021/12/02 10:23:23;;;;;;;17.88;16.85;;;21.00;99.90;;;;;;5035571;28;20475;-74
2021/12/02 10:25:57;;;;;;;17.02;16.13;;;20.90;99.90;;;;;;5035654;28;20379;-74
2021/12/02 10:28:27;;;;;;;17.27;16.27;;;20.80;99.90;;;;;;5035874;28;20028;-73
2021/12/02 10:30:58;;;;;;;18.10;16.92;;;20.90;99.90;;;;;;5035277;28;20026;-75
2021/12/02 10:33:54;;;;;;;18.48;17.55;;;20.90;99.90;;;;;;5033935;28;20450;-74
2021/12/02 10:36:24;;;;;;;19.30;18.20;;;20.90;99.90;;;;;;5034261;28;20030;-73
2021/12/02 10:38:53;;;;;;;20.63;19.52;;;20.90;99.90;;;;;;5035028;28;20053;-75
2021/12/02 10:41:24;;;;;;;20.25;19.10;;;20.90;99.90;;;;;;5033627;28;20041;-75
2021/12/02 10:44:12;;;;;;;19.80;18.70;;;20.90;99.90;;;;;;5034524;28;20049;-74
2021/12/02 10:47:01;;;;;;;20.27;19.20;;;20.80;99.90;;;;;;5033652;28;20029;-75
2021/12/02 10:49:44;;;;;;;20.33;18.98;;;20.80;99.90;;;;;;5030301;28;20402;-75
2021/12/02 10:52:16;;;;;;;19.85;18.85;;;20.80;99.90;;;;;;5033988;28;20025;-75
2021/12/02 10:54:51;;;;;;;19.90;18.77;;;20.80;99.90;;;;;;5034914;28;20040;-75
2021/12/02 10:57:22;;;;;;;20.80;19.25;;;20.80;99.90;;;;;;5034817;28;20029;-76
2021/12/02 10:59:50;;;;;;;;;;;20.80;99.90;;;;;;5035553;28;20032;-74
2021/12/02 11:02:36;;;;;;;19.70;18.70;;;20.80;99.90;;;;;;5033482;28;19905;-75
2021/12/02 11:05:22;;;;;;;20.42;19.23;;;20.80;99.90;;;;;;5033489;28;20052;-74
2021/12/02 11:07:59;;;;;;;20.20;19.20;;;20.70;99.90;;;;;;5034779;28;20078;-75
2021/12/02 11:10:31;;;;;;;21.13;19.92;;;20.70;99.90;;;;;;5033423;28;20083;-74
2021/12/02 11:12:59;;;;;;;21.40;20.30;;;20.80;99.90;;;;;;5034570;28;20021;-74
2021/12/02 11:15:30;;;;;;;21.30;20.20;;;20.70;99.90;;;;;;5034564;28;20032;-75
2021/12/02 11:17:59;;;;;;;22.00;20.70;;;20.70;99.90;;;;;;5033345;28;20036;-74
2021/12/02 11:20:31;;;;;;;21.73;20.40;;;20.70;99.90;;;;;;5033150;28;20032;-74
2021/12/02 11:23:18;;;;;;;20.75;19.67;;;20.70;99.90;;;;;;5034545;28;20028;-73
2021/12/02 11:26:08;;;;;;;21.38;20.27;;;20.60;99.90;;;;;;5032923;28;20526;-73
2021/12/02 11:28:38;;;;;;;21.00;20.00;;;20.60;99.90;;;;;;5034497;28;20028;-74
2021/12/02 11:31:19;;;;;;;21.42;20.08;;;20.60;99.90;;;;;;5033347;28;20022;-75
2021/12/02 11:33:49;;;;;;;22.10;20.85;;;20.60;99.90;;;;;;5034672;28;20021;-77
2021/12/02 11:36:22;;;;;;;21.60;20.53;;;20.60;99.90;;;;;;5034319;28;20120;-74
2021/12/02 11:38:56;;;;;;;21.88;20.77;;;20.60;99.90;;;;;;5033102;28;20029;-75
2021/12/02 11:41:23;;;;;;;21.80;20.80;;;20.60;99.90;;;;;;5033095;28;20029;-75
2021/12/02 11:43:53;;;;;;;21.65;20.65;;;20.60;99.90;;;;;;5034131;28;20045;-75
2021/12/02 11:46:21;;;;;;;21.43;20.47;;;20.50;99.90;;;;;;5032815;28;20029;-74
2021/12/02 11:48:49;;;;;;;21.63;20.63;;;20.50;99.90;;;;;;5034486;28;20255;-76
2021/12/02 11:51:19;;;;;;;22.00;21.00;;;20.50;99.90;;;;;;5034300;28;20022;-75
2021/12/02 11:53:47;;;;;;;21.70;20.55;;;20.50;99.90;;;;;;5032919;28;20509;-76
2021/12/02 11:56:18;;;;;;;21.65;20.30;;;20.50;99.90;;;;;;5032865;28;20040;-76
2021/12/02 11:58:47;;;;;;;22.23;21.02;;;20.50;99.90;;;;;;5034005;28;20025;-76
2021/12/02 12:01:24;;;;;;;21.38;20.20;;;20.40;99.90;;;;;;5034095;28;20028;-76
2021/12/02 12:03:56;;;;;;;22.20;21.10;;;20.40;99.90;;;;;;5034305;28;20024;-77
2021/12/02 12:06:30;;;;;;;22.40;21.15;;;20.40;99.90;;;;;;5033840;28;20104;-76
2021/12/02 12:08:58;;;;;;;21.55;20.45;;;20.40;99.90;;;;;;5033761;28;20095;-76
2021/12/02 12:11:31;;;;;;;21.50;20.38;;;20.40;99.90;;;;;;5033173;28;20032;-76
2021/12/02 12:14:11;;;;;;;20.83;19.98;;;20.30;99.90;;;;;;5034463;28;20371;-74
2021/12/02 12:16:45;;;;;;;20.90;19.67;;;20.30;99.90;;;;;;5034449;28;20037;-76
2021/12/02 12:19:28;;;;;;;21.23;20.02;;;20.30;99.90;;;;;;5032903;28;20604;-77
2021/12/02 12:22:02;;;;;;;20.92;19.88;;;20.30;99.90;;;;;;5033369;28;20144;-76
2021/12/02 12:24:41;;;;;;;21.27;20.30;;;20.30;99.90;;;;;;5034496;28;20025;-77
2021/12/02 12:27:29;;;;;;;21.30;20.20;;;20.20;99.90;;;;;;5032717;28;20052;-74
2021/12/02 12:32:51;;;;;;;21.45;20.30;;;20.20;99.90;;;;;;5033941;28;20033;-75
2021/12/02 12:35:38;;;;;;;21.17;20.17;;;20.10;99.90;;;;;;5033893;28;20017;-75
2021/12/02 12:38:28;;;;;;;21.63;20.40;;;20.20;99.90;;;;;;5032710;28;20389;-75
2021/12/02 12:41:01;;;;;;;21.13;20.02;;;20.20;99.90;;;;;;5034064;28;20022;-76
2021/12/02 12:43:38;;;;;;;21.17;19.98;;;20.20;99.90;;;;;;5032560;28;20045;-75
2021/12/02 12:46:13;;;;;;;21.40;20.27;;;20.10;99.90;;;;;;5032702;28;20116;-75
2021/12/02 12:48:41;;;;;;;21.05;20.05;;;20.10;99.90;;;;;;5034193;28;20025;-75
2021/12/02 12:51:14;;;;;;;20.77;19.65;;;20.10;99.90;;;;;;5034102;28;20445;-75
2021/12/02 12:53:44;;;;;;;21.20;19.90;;;20.10;99.90;;;;;;5032506;28;20032;-74
2021/12/02 12:56:14;;;;;;;21.80;20.65;;;20.10;99.90;;;;;;5033754;28;20521;-76
2021/12/02 12:58:59;;;;;;;21.60;20.25;;;20.10;99.90;;;;;;5032588;28;20112;-76
2021/12/02 13:01:28;;;;;;;20.95;20.05;;;20.10;99.90;;;;;;5032136;28;20087;-78
2021/12/02 13:04:08;;;;;;;21.60;20.63;;;20.00;99.90;;;;;;5033391;28;20021;-77
2021/12/02 13:07:05;;;;;;;21.63;20.52;;;20.00;99.90;;;;;;5032339;28;20060;-78
2021/12/02 13:09:42;;;;;;;21.90;20.77;;;19.90;99.90;;;;;;5029951;28;20040;-76
2021/12/02 13:12:12;;;;;;;22.33;21.10;;;19.90;99.90;;;;;;5033275;28;20025;-76
2021/12/02 13:14:42;;;;;;;22.20;20.85;;;19.90;99.90;;;;;;5033662;28;20018;-76
2021/12/02 13:17:37;;;;;;;22.17;21.17;;;19.90;99.90;;;;;;5032102;28;20121;-76